sensor_id;sensor_type;location;lat;lon;timestamp;P1;durP1;ratioP1;P2;durP2;ratioP2
39094;SDS011;24840;47.508;19.376;2022-10-17T00:02:18;14.80;;;8.82;;
39094;SDS011;24840;47.508;19.376;2022-10-17T00:04:44;12.93;;;8.27;;
39094;SDS011;24840;47.508;19.376;2022-10-17T00:07:10;11.75;;;8.80;;
39094;SDS011;24840;47.508;19.376;2022-10-17T00:09:36;12.65;;;9.38;;
39094;SDS011;24840;47.508;19.376;2022-10-17T00:12:02;15.57;;;9.05;;
39094;SDS011;24840;47.508;19.376;2022-10-17T00:14:28;14.07;;;7.90;;
39094;SDS011;24840;47.508;19.376;2022-10-17T00:16:54;15.25;;;9.02;;
39094;SDS011;24840;47.508;19.376;2022-10-17T00:19:20;12.00;;;9.00;;
39094;SDS011;24840;47.508;19.376;2022-10-17T00:21:47;10.13;;;7.97;;
39094;SDS011;24840;47.508;19.376;2022-10-17T00:24:13;10.10;;;8.50;;
39094;SDS011;24840;47.508;19.376;2022-10-17T00:26:39;12.43;;;8.95;;
39094;SDS011;24840;47.508;19.376;2022-10-17T00:29:05;14.77;;;8.98;;
39094;SDS011;24840;47.508;19.376;2022-10-17T00:31:31;19.17;;;9.75;;
39094;SDS011;24840;47.508;19.376;2022-10-17T00:33:57;10.80;;;8.70;;
39094;SDS011;24840;47.508;19.376;2022-10-17T00:36:24;13.15;;;8.75;;
39094;SDS011;24840;47.508;19.376;2022-10-17T00:38:51;18.02;;;8.13;;
39094;SDS011;24840;47.508;19.376;2022-10-17T00:41:20;12.77;;;8.85;;
39094;SDS011;24840;47.508;19.376;2022-10-17T00:43:58;12.82;;;9.20;;
39094;SDS011;24840;47.508;19.376;2022-10-17T00:46:30;14.20;;;8.33;;
39094;SDS011;24840;47.508;19.376;2022-10-17T00:48:59;12.63;;;9.50;;
39094;SDS011;24840;47.508;19.376;2022-10-17T00:51:33;13.43;;;9.03;;
39094;SDS011;24840;47.508;19.376;2022-10-17T00:54:02;12.50;;;8.93;;
39094;SDS011;24840;47.508;19.376;2022-10-17T00:56:29;11.40;;;9.43;;
39094;SDS011;24840;47.508;19.376;2022-10-17T00:58:56;10.35;;;9.07;;
39094;SDS011;24840;47.508;19.376;2022-10-17T01:01:23;13.80;;;9.57;;
39094;SDS011;24840;47.508;19.376;2022-10-17T01:03:49;13.27;;;9.30;;
39094;SDS011;24840;47.508;19.376;2022-10-17T01:06:15;15.07;;;10.63;;
39094;SDS011;24840;47.508;19.376;2022-10-17T01:08:41;11.70;;;9.07;;
39094;SDS011;24840;47.508;19.376;2022-10-17T01:13:52;11.33;;;8.73;;
39094;SDS011;24840;47.508;19.376;2022-10-17T01:16:31;10.27;;;8.60;;
39094;SDS011;24840;47.508;19.376;2022-10-17T01:22:25;14.80;;;9.70;;
39094;SDS011;24840;47.508;19.376;2022-10-17T01:32:48;19.57;;;8.13;;
39094;SDS011;24840;47.508;19.376;2022-10-17T01:43:40;11.13;;;8.50;;
39094;SDS011;24840;47.508;19.376;2022-10-17T01:46:22;12.97;;;8.47;;
39094;SDS011;24840;47.508;19.376;2022-10-17T01:48:53;15.88;;;9.00;;
39094;SDS011;24840;47.508;19.376;2022-10-17T01:51:24;11.97;;;8.60;;
39094;SDS011;24840;47.508;19.376;2022-10-17T01:59:06;12.50;;;7.87;;
39094;SDS011;24840;47.508;19.376;2022-10-17T02:01:44;11.70;;;7.53;;
39094;SDS011;24840;47.508;19.376;2022-10-17T02:04:12;12.07;;;8.37;;
39094;SDS011;24840;47.508;19.376;2022-10-17T02:06:38;15.03;;;8.80;;
39094;SDS011;24840;47.508;19.376;2022-10-17T02:14:59;9.90;;;7.30;;
39094;SDS011;24840;47.508;19.376;2022-10-17T02:20:28;10.15;;;7.47;;
39094;SDS011;24840;47.508;19.376;2022-10-17T02:23:08;9.77;;;7.90;;
39094;SDS011;24840;47.508;19.376;2022-10-17T02:28:29;10.30;;;7.90;;
39094;SDS011;24840;47.508;19.376;2022-10-17T02:34:58;9.10;;;7.50;;
39094;SDS011;24840;47.508;19.376;2022-10-17T02:37:10;17.13;;;8.27;;
39094;SDS011;24840;47.508;19.376;2022-10-17T02:39:39;8.63;;;7.73;;
39094;SDS011;24840;47.508;19.376;2022-10-17T02:42:08;12.00;;;8.40;;
39094;SDS011;24840;47.508;19.376;2022-10-17T02:44:39;10.77;;;7.77;;
39094;SDS011;24840;47.508;19.376;2022-10-17T02:47:10;10.75;;;7.70;;
39094;SDS011;24840;47.508;19.376;2022-10-17T02:49:45;13.70;;;7.40;;
39094;SDS011;24840;47.508;19.376;2022-10-17T02:54:57;8.63;;;7.73;;
39094;SDS011;24840;47.508;19.376;2022-10-17T03:00:17;10.83;;;7.43;;
39094;SDS011;24840;47.508;19.376;2022-10-17T03:02:45;12.33;;;8.03;;
39094;SDS011;24840;47.508;19.376;2022-10-17T03:05:15;9.50;;;6.93;;
39094;SDS011;24840;47.508;19.376;2022-10-17T03:07:46;8.43;;;6.87;;
39094;SDS011;24840;47.508;19.376;2022-10-17T03:10:12;10.90;;;8.03;;
39094;SDS011;24840;47.508;19.376;2022-10-17T03:12:38;11.77;;;7.33;;
39094;SDS011;24840;47.508;19.376;2022-10-17T03:15:04;12.70;;;8.37;;
39094;SDS011;24840;47.508;19.376;2022-10-17T03:17:30;10.07;;;7.53;;
39094;SDS011;24840;47.508;19.376;2022-10-17T03:19:57;11.03;;;7.80;;
39094;SDS011;24840;47.508;19.376;2022-10-17T03:22:23;7.80;;;6.60;;
39094;SDS011;24840;47.508;19.376;2022-10-17T03:24:49;10.90;;;6.93;;
39094;SDS011;24840;47.508;19.376;2022-10-17T03:27:14;8.80;;;7.50;;
39094;SDS011;24840;47.508;19.376;2022-10-17T03:29:40;10.87;;;8.20;;
39094;SDS011;24840;47.508;19.376;2022-10-17T03:32:06;11.20;;;7.60;;
39094;SDS011;24840;47.508;19.376;2022-10-17T03:34:32;13.83;;;7.90;;
39094;SDS011;24840;47.508;19.376;2022-10-17T03:36:58;9.47;;;7.20;;
39094;SDS011;24840;47.508;19.376;2022-10-17T03:39:24;11.07;;;7.20;;
39094;SDS011;24840;47.508;19.376;2022-10-17T03:41:50;8.20;;;7.37;;
39094;SDS011;24840;47.508;19.376;2022-10-17T03:44:16;8.77;;;7.23;;
39094;SDS011;24840;47.508;19.376;2022-10-17T03:46:42;14.47;;;7.57;;
39094;SDS011;24840;47.508;19.376;2022-10-17T03:49:08;10.07;;;7.70;;
39094;SDS011;24840;47.508;19.376;2022-10-17T03:51:35;11.50;;;7.20;;
39094;SDS011;24840;47.508;19.376;2022-10-17T03:54:01;10.37;;;7.07;;
39094;SDS011;24840;47.508;19.376;2022-10-17T03:56:27;9.30;;;6.57;;
39094;SDS011;24840;47.508;19.376;2022-10-17T03:58:55;9.20;;;6.47;;
39094;SDS011;24840;47.508;19.376;2022-10-17T04:01:21;11.20;;;6.90;;
39094;SDS011;24840;47.508;19.376;2022-10-17T04:03:48;9.40;;;6.67;;
39094;SDS011;24840;47.508;19.376;2022-10-17T04:06:15;7.43;;;6.63;;
39094;SDS011;24840;47.508;19.376;2022-10-17T04:08:41;7.60;;;6.20;;
39094;SDS011;24840;47.508;19.376;2022-10-17T04:11:07;7.97;;;6.77;;
39094;SDS011;24840;47.508;19.376;2022-10-17T04:13:35;8.33;;;6.20;;
39094;SDS011;24840;47.508;19.376;2022-10-17T04:16:02;11.00;;;6.40;;
39094;SDS011;24840;47.508;19.376;2022-10-17T04:18:30;7.40;;;5.47;;
39094;SDS011;24840;47.508;19.376;2022-10-17T04:20:56;11.50;;;7.17;;
39094;SDS011;24840;47.508;19.376;2022-10-17T04:23:25;11.10;;;6.00;;
39094;SDS011;24840;47.508;19.376;2022-10-17T04:25:54;9.43;;;6.57;;
39094;SDS011;24840;47.508;19.376;2022-10-17T04:28:23;10.32;;;7.50;;
39094;SDS011;24840;47.508;19.376;2022-10-17T04:30:57;10.13;;;7.13;;
39094;SDS011;24840;47.508;19.376;2022-10-17T04:33:27;20.70;;;11.83;;
39094;SDS011;24840;47.508;19.376;2022-10-17T04:35:56;21.67;;;11.87;;
39094;SDS011;24840;47.508;19.376;2022-10-17T04:38:26;10.73;;;6.95;;
39094;SDS011;24840;47.508;19.376;2022-10-17T04:40:55;9.07;;;7.53;;
39094;SDS011;24840;47.508;19.376;2022-10-17T04:43:22;13.50;;;9.07;;
39094;SDS011;24840;47.508;19.376;2022-10-17T04:45:48;10.73;;;7.23;;
39094;SDS011;24840;47.508;19.376;2022-10-17T04:48:14;10.43;;;6.50;;
39094;SDS011;24840;47.508;19.376;2022-10-17T04:50:39;6.80;;;5.20;;
39094;SDS011;24840;47.508;19.376;2022-10-17T04:53:05;9.67;;;6.33;;
39094;SDS011;24840;47.508;19.376;2022-10-17T04:55:35;9.03;;;6.33;;
39094;SDS011;24840;47.508;19.376;2022-10-17T04:58:02;10.27;;;6.07;;
39094;SDS011;24840;47.508;19.376;2022-10-17T05:00:28;7.07;;;5.77;;
39094;SDS011;24840;47.508;19.376;2022-10-17T05:02:54;10.57;;;6.40;;
39094;SDS011;24840;47.508;19.376;2022-10-17T05:05:20;10.00;;;5.73;;
39094;SDS011;24840;47.508;19.376;2022-10-17T05:07:46;8.13;;;6.37;;
39094;SDS011;24840;47.508;19.376;2022-10-17T05:10:12;9.00;;;6.57;;
39094;SDS011;24840;47.508;19.376;2022-10-17T05:12:38;7.10;;;5.80;;
39094;SDS011;24840;47.508;19.376;2022-10-17T05:15:05;7.97;;;6.60;;
39094;SDS011;24840;47.508;19.376;2022-10-17T05:17:31;8.53;;;7.23;;
39094;SDS011;24840;47.508;19.376;2022-10-17T05:19:57;10.30;;;6.87;;
39094;SDS011;24840;47.508;19.376;2022-10-17T05:22:24;9.03;;;6.90;;
39094;SDS011;24840;47.508;19.376;2022-10-17T05:24:50;15.03;;;7.77;;
39094;SDS011;24840;47.508;19.376;2022-10-17T05:27:16;8.47;;;6.80;;
39094;SDS011;24840;47.508;19.376;2022-10-17T05:29:42;11.90;;;7.27;;
39094;SDS011;24840;47.508;19.376;2022-10-17T05:32:08;7.47;;;6.13;;
39094;SDS011;24840;47.508;19.376;2022-10-17T05:34:34;6.60;;;5.73;;
39094;SDS011;24840;47.508;19.376;2022-10-17T05:37:00;9.57;;;6.73;;
39094;SDS011;24840;47.508;19.376;2022-10-17T05:39:25;9.27;;;7.67;;
39094;SDS011;24840;47.508;19.376;2022-10-17T05:41:51;14.67;;;6.57;;
39094;SDS011;24840;47.508;19.376;2022-10-17T05:44:17;8.00;;;6.53;;
39094;SDS011;24840;47.508;19.376;2022-10-17T05:46:43;12.63;;;6.87;;
39094;SDS011;24840;47.508;19.376;2022-10-17T05:49:09;10.93;;;7.33;;
39094;SDS011;24840;47.508;19.376;2022-10-17T05:51:35;16.03;;;9.57;;
39094;SDS011;24840;47.508;19.376;2022-10-17T05:54:03;10.97;;;7.83;;
39094;SDS011;24840;47.508;19.376;2022-10-17T05:56:30;16.47;;;7.60;;
39094;SDS011;24840;47.508;19.376;2022-10-17T05:58:58;10.53;;;7.00;;
39094;SDS011;24840;47.508;19.376;2022-10-17T06:01:23;13.27;;;8.07;;
39094;SDS011;24840;47.508;19.376;2022-10-17T06:03:49;12.30;;;7.33;;
39094;SDS011;24840;47.508;19.376;2022-10-17T06:06:16;12.63;;;7.70;;
39094;SDS011;24840;47.508;19.376;2022-10-17T06:08:42;19.00;;;8.33;;
39094;SDS011;24840;47.508;19.376;2022-10-17T06:11:09;8.17;;;7.37;;
39094;SDS011;24840;47.508;19.376;2022-10-17T06:13:36;11.47;;;7.90;;
39094;SDS011;24840;47.508;19.376;2022-10-17T06:16:03;8.17;;;7.33;;
39094;SDS011;24840;47.508;19.376;2022-10-17T06:18:30;11.80;;;7.57;;
39094;SDS011;24840;47.508;19.376;2022-10-17T06:21:06;9.43;;;7.90;;
39094;SDS011;24840;47.508;19.376;2022-10-17T06:23:34;16.63;;;8.07;;
39094;SDS011;24840;47.508;19.376;2022-10-17T06:26:00;11.50;;;8.17;;
39094;SDS011;24840;47.508;19.376;2022-10-17T06:28:27;10.50;;;8.03;;
39094;SDS011;24840;47.508;19.376;2022-10-17T06:30:54;12.73;;;8.67;;
39094;SDS011;24840;47.508;19.376;2022-10-17T06:33:19;10.30;;;9.07;;
39094;SDS011;24840;47.508;19.376;2022-10-17T06:35:51;11.93;;;9.50;;
39094;SDS011;24840;47.508;19.376;2022-10-17T06:38:34;12.97;;;8.60;;
39094;SDS011;24840;47.508;19.376;2022-10-17T06:41:02;12.30;;;9.07;;
39094;SDS011;24840;47.508;19.376;2022-10-17T06:43:38;9.03;;;7.57;;
39094;SDS011;24840;47.508;19.376;2022-10-17T06:46:15;15.37;;;8.13;;
39094;SDS011;24840;47.508;19.376;2022-10-17T06:48:43;13.53;;;8.90;;
39094;SDS011;24840;47.508;19.376;2022-10-17T06:51:09;11.73;;;8.33;;
39094;SDS011;24840;47.508;19.376;2022-10-17T06:53:36;13.43;;;9.67;;
39094;SDS011;24840;47.508;19.376;2022-10-17T06:56:04;17.73;;;12.50;;
39094;SDS011;24840;47.508;19.376;2022-10-17T06:58:35;12.83;;;9.50;;
39094;SDS011;24840;47.508;19.376;2022-10-17T07:01:12;14.17;;;10.10;;
39094;SDS011;24840;47.508;19.376;2022-10-17T07:03:45;19.80;;;12.70;;
39094;SDS011;24840;47.508;19.376;2022-10-17T07:06:12;14.00;;;10.20;;
39094;SDS011;24840;47.508;19.376;2022-10-17T07:08:41;17.63;;;11.98;;
39094;SDS011;24840;47.508;19.376;2022-10-17T07:11:09;16.17;;;13.70;;
39094;SDS011;24840;47.508;19.376;2022-10-17T07:13:41;21.20;;;12.40;;
39094;SDS011;24840;47.508;19.376;2022-10-17T07:16:08;13.27;;;9.57;;
39094;SDS011;24840;47.508;19.376;2022-10-17T07:18:36;14.63;;;12.48;;
39094;SDS011;24840;47.508;19.376;2022-10-17T07:21:03;14.50;;;10.20;;
39094;SDS011;24840;47.508;19.376;2022-10-17T07:23:29;14.27;;;10.80;;
39094;SDS011;24840;47.508;19.376;2022-10-17T07:25:59;16.20;;;13.25;;
39094;SDS011;24840;47.508;19.376;2022-10-17T07:28:26;15.48;;;13.80;;
39094;SDS011;24840;47.508;19.376;2022-10-17T07:30:53;16.52;;;11.85;;
39094;SDS011;24840;47.508;19.376;2022-10-17T07:33:19;15.85;;;11.20;;
39094;SDS011;24840;47.508;19.376;2022-10-17T07:35:45;10.27;;;8.35;;
39094;SDS011;24840;47.508;19.376;2022-10-17T07:38:12;14.88;;;10.57;;
39094;SDS011;24840;47.508;19.376;2022-10-17T07:40:38;16.63;;;9.93;;
39094;SDS011;24840;47.508;19.376;2022-10-17T07:43:04;14.20;;;10.90;;
39094;SDS011;24840;47.508;19.376;2022-10-17T07:45:30;16.27;;;11.68;;
39094;SDS011;24840;47.508;19.376;2022-10-17T07:47:56;13.35;;;10.55;;
39094;SDS011;24840;47.508;19.376;2022-10-17T07:50:23;15.80;;;10.70;;
39094;SDS011;24840;47.508;19.376;2022-10-17T07:52:49;14.63;;;9.57;;
39094;SDS011;24840;47.508;19.376;2022-10-17T07:55:15;13.43;;;10.02;;
39094;SDS011;24840;47.508;19.376;2022-10-17T07:57:42;11.88;;;9.05;;
39094;SDS011;24840;47.508;19.376;2022-10-17T08:00:10;13.82;;;9.38;;
39094;SDS011;24840;47.508;19.376;2022-10-17T08:02:39;10.40;;;8.45;;
39094;SDS011;24840;47.508;19.376;2022-10-17T08:05:07;13.60;;;9.18;;
39094;SDS011;24840;47.508;19.376;2022-10-17T08:07:34;10.93;;;8.40;;
39094;SDS011;24840;47.508;19.376;2022-10-17T08:10:00;10.85;;;8.77;;
39094;SDS011;24840;47.508;19.376;2022-10-17T08:12:26;9.70;;;8.18;;
39094;SDS011;24840;47.508;19.376;2022-10-17T08:14:56;14.25;;;9.00;;
39094;SDS011;24840;47.508;19.376;2022-10-17T08:17:22;9.63;;;7.55;;
39094;SDS011;24840;47.508;19.376;2022-10-17T08:19:48;10.25;;;7.45;;
39094;SDS011;24840;47.508;19.376;2022-10-17T08:22:17;10.70;;;7.20;;
39094;SDS011;24840;47.508;19.376;2022-10-17T08:24:46;11.88;;;6.68;;
39094;SDS011;24840;47.508;19.376;2022-10-17T08:27:14;9.23;;;6.88;;
39094;SDS011;24840;47.508;19.376;2022-10-17T08:29:45;10.65;;;7.10;;
39094;SDS011;24840;47.508;19.376;2022-10-17T08:32:17;14.57;;;7.80;;
39094;SDS011;24840;47.508;19.376;2022-10-17T08:34:50;9.68;;;6.43;;
39094;SDS011;24840;47.508;19.376;2022-10-17T08:37:17;8.68;;;5.90;;
39094;SDS011;24840;47.508;19.376;2022-10-17T08:39:44;11.10;;;6.25;;
39094;SDS011;24840;47.508;19.376;2022-10-17T08:42:27;10.80;;;6.63;;
39094;SDS011;24840;47.508;19.376;2022-10-17T08:47:48;12.38;;;7.15;;
39094;SDS011;24840;47.508;19.376;2022-10-17T08:53:02;8.52;;;5.82;;
39094;SDS011;24840;47.508;19.376;2022-10-17T08:55:44;9.65;;;5.03;;
39094;SDS011;24840;47.508;19.376;2022-10-17T08:58:14;7.77;;;5.90;;
39094;SDS011;24840;47.508;19.376;2022-10-17T09:06:29;9.02;;;5.28;;
39094;SDS011;24840;47.508;19.376;2022-10-17T09:18:01;6.18;;;4.80;;
39094;SDS011;24840;47.508;19.376;2022-10-17T09:20:49;6.97;;;5.43;;
39094;SDS011;24840;47.508;19.376;2022-10-17T09:23:22;8.07;;;5.45;;
39094;SDS011;24840;47.508;19.376;2022-10-17T09:25:53;8.75;;;4.90;;
39094;SDS011;24840;47.508;19.376;2022-10-17T09:28:32;6.82;;;5.68;;
39094;SDS011;24840;47.508;19.376;2022-10-17T09:31:04;5.68;;;4.68;;
39094;SDS011;24840;47.508;19.376;2022-10-17T09:33:41;8.88;;;5.30;;
39094;SDS011;24840;47.508;19.376;2022-10-17T09:36:10;7.65;;;5.22;;
39094;SDS011;24840;47.508;19.376;2022-10-17T09:38:47;5.53;;;4.78;;
39094;SDS011;24840;47.508;19.376;2022-10-17T17:09:45;6.68;;;4.13;;
39094;SDS011;24840;47.508;19.376;2022-10-17T17:12:11;5.15;;;3.83;;
39094;SDS011;24840;47.508;19.376;2022-10-17T17:14:37;4.65;;;3.47;;
39094;SDS011;24840;47.508;19.376;2022-10-17T17:31:58;5.35;;;3.90;;
39094;SDS011;24840;47.508;19.376;2022-10-17T17:34:24;5.32;;;4.13;;
39094;SDS011;24840;47.508;19.376;2022-10-17T17:36:50;11.65;;;3.83;;
39094;SDS011;24840;47.508;19.376;2022-10-17T17:39:16;8.88;;;4.15;;
39094;SDS011;24840;47.508;19.376;2022-10-17T17:41:42;7.95;;;5.03;;
39094;SDS011;24840;47.508;19.376;2022-10-17T17:44:10;7.85;;;3.78;;
39094;SDS011;24840;47.508;19.376;2022-10-17T17:46:38;7.95;;;4.32;;
39094;SDS011;24840;47.508;19.376;2022-10-17T17:49:04;6.30;;;4.82;;
39094;SDS011;24840;47.508;19.376;2022-10-17T17:51:31;8.27;;;4.57;;
39094;SDS011;24840;47.508;19.376;2022-10-17T17:53:58;6.63;;;4.10;;
39094;SDS011;24840;47.508;19.376;2022-10-17T17:59:39;5.28;;;3.70;;
39094;SDS011;24840;47.508;19.376;2022-10-17T18:02:05;5.72;;;3.97;;
39094;SDS011;24840;47.508;19.376;2022-10-17T18:04:33;12.55;;;4.60;;
39094;SDS011;24840;47.508;19.376;2022-10-17T18:06:59;6.07;;;4.78;;
39094;SDS011;24840;47.508;19.376;2022-10-17T18:09:25;11.05;;;5.65;;
39094;SDS011;24840;47.508;19.376;2022-10-17T18:11:51;8.63;;;4.60;;
39094;SDS011;24840;47.508;19.376;2022-10-17T18:16:57;7.55;;;4.05;;
39094;SDS011;24840;47.508;19.376;2022-10-17T18:19:23;8.45;;;4.88;;
39094;SDS011;24840;47.508;19.376;2022-10-17T18:21:52;7.13;;;5.25;;
39094;SDS011;24840;47.508;19.376;2022-10-17T18:24:19;9.73;;;4.88;;
39094;SDS011;24840;47.508;19.376;2022-10-17T18:26:45;5.40;;;4.30;;
39094;SDS011;24840;47.508;19.376;2022-10-17T18:29:11;6.30;;;4.10;;
39094;SDS011;24840;47.508;19.376;2022-10-17T18:38:29;7.07;;;4.55;;
39094;SDS011;24840;47.508;19.376;2022-10-17T18:41:04;6.20;;;4.50;;
39094;SDS011;24840;47.508;19.376;2022-10-17T18:46:35;9.02;;;6.45;;
39094;SDS011;24840;47.508;19.376;2022-10-17T18:49:05;7.10;;;4.20;;
39094;SDS011;24840;47.508;19.376;2022-10-17T18:54:20;11.02;;;5.38;;
39094;SDS011;24840;47.508;19.376;2022-10-17T18:56:48;4.38;;;3.88;;
39094;SDS011;24840;47.508;19.376;2022-10-17T18:59:16;7.53;;;4.68;;
39094;SDS011;24840;47.508;19.376;2022-10-17T19:01:44;8.23;;;4.72;;
39094;SDS011;24840;47.508;19.376;2022-10-17T19:04:11;6.65;;;5.03;;
39094;SDS011;24840;47.508;19.376;2022-10-17T19:06:37;14.48;;;5.45;;
39094;SDS011;24840;47.508;19.376;2022-10-17T19:09:05;7.22;;;4.97;;
39094;SDS011;24840;47.508;19.376;2022-10-17T19:17:57;12.70;;;6.93;;
39094;SDS011;24840;47.508;19.376;2022-10-17T19:20:23;9.27;;;6.70;;
39094;SDS011;24840;47.508;19.376;2022-10-17T19:25:23;11.15;;;8.18;;
39094;SDS011;24840;47.508;19.376;2022-10-17T19:27:49;9.98;;;7.57;;
39094;SDS011;24840;47.508;19.376;2022-10-17T19:30:15;10.73;;;6.85;;
39094;SDS011;24840;47.508;19.376;2022-10-17T19:36:24;8.13;;;6.18;;
39094;SDS011;24840;47.508;19.376;2022-10-17T19:38:51;12.07;;;6.28;;
39094;SDS011;24840;47.508;19.376;2022-10-17T19:50:44;12.52;;;7.82;;
39094;SDS011;24840;47.508;19.376;2022-10-17T19:56:19;8.05;;;5.93;;
39094;SDS011;24840;47.508;19.376;2022-10-17T19:58:47;13.55;;;7.60;;
39094;SDS011;24840;47.508;19.376;2022-10-17T20:01:15;31.30;;;12.63;;
39094;SDS011;24840;47.508;19.376;2022-10-17T20:03:43;23.17;;;12.68;;
39094;SDS011;24840;47.508;19.376;2022-10-17T20:06:10;19.73;;;13.52;;
39094;SDS011;24840;47.508;19.376;2022-10-17T20:08:37;14.10;;;11.23;;
39094;SDS011;24840;47.508;19.376;2022-10-17T20:11:05;14.93;;;9.52;;
39094;SDS011;24840;47.508;19.376;2022-10-17T20:16:23;13.85;;;9.05;;
39094;SDS011;24840;47.508;19.376;2022-10-17T20:18:52;13.60;;;11.02;;
39094;SDS011;24840;47.508;19.376;2022-10-17T20:24:42;13.32;;;9.75;;
39094;SDS011;24840;47.508;19.376;2022-10-17T20:27:08;16.00;;;11.65;;
39094;SDS011;24840;47.508;19.376;2022-10-17T20:29:34;13.80;;;7.88;;
39094;SDS011;24840;47.508;19.376;2022-10-17T20:38:19;7.90;;;6.35;;
39094;SDS011;24840;47.508;19.376;2022-10-17T20:40:47;10.63;;;7.50;;
39094;SDS011;24840;47.508;19.376;2022-10-17T20:46:39;14.75;;;7.75;;
39094;SDS011;24840;47.508;19.376;2022-10-17T20:49:17;16.35;;;9.45;;
39094;SDS011;24840;47.508;19.376;2022-10-17T20:58:41;14.10;;;7.50;;
39094;SDS011;24840;47.508;19.376;2022-10-17T21:01:08;10.15;;;7.18;;
39094;SDS011;24840;47.508;19.376;2022-10-17T21:07:16;10.23;;;8.23;;
39094;SDS011;24840;47.508;19.376;2022-10-17T21:09:43;9.80;;;7.32;;
39094;SDS011;24840;47.508;19.376;2022-10-17T21:15:51;13.60;;;9.85;;
39094;SDS011;24840;47.508;19.376;2022-10-17T21:18:17;9.90;;;8.32;;
39094;SDS011;24840;47.508;19.376;2022-10-17T21:20:44;11.60;;;8.52;;
39094;SDS011;24840;47.508;19.376;2022-10-17T21:26:39;10.48;;;8.35;;
39094;SDS011;24840;47.508;19.376;2022-10-17T21:29:07;12.23;;;8.40;;
39094;SDS011;24840;47.508;19.376;2022-10-17T21:38:23;14.18;;;10.07;;
39094;SDS011;24840;47.508;19.376;2022-10-17T21:40:52;11.50;;;9.95;;
39094;SDS011;24840;47.508;19.376;2022-10-17T21:46:41;14.40;;;9.63;;
39094;SDS011;24840;47.508;19.376;2022-10-17T21:49:08;11.88;;;9.85;;
39094;SDS011;24840;47.508;19.376;2022-10-17T21:51:43;14.00;;;9.32;;
39094;SDS011;24840;47.508;19.376;2022-10-17T21:54:11;11.45;;;9.02;;
39094;SDS011;24840;47.508;19.376;2022-10-17T21:56:38;10.35;;;8.32;;
39094;SDS011;24840;47.508;19.376;2022-10-17T21:59:06;14.07;;;8.82;;
39094;SDS011;24840;47.508;19.376;2022-10-17T22:05:03;10.32;;;7.55;;
39094;SDS011;24840;47.508;19.376;2022-10-17T22:07:29;15.30;;;10.88;;
39094;SDS011;24840;47.508;19.376;2022-10-17T22:09:55;12.95;;;9.30;;
39094;SDS011;24840;47.508;19.376;2022-10-17T22:19:21;9.88;;;8.82;;
39094;SDS011;24840;47.508;19.376;2022-10-17T22:28:13;15.05;;;10.27;;
39094;SDS011;24840;47.508;19.376;2022-10-17T22:30:40;13.18;;;10.85;;
39094;SDS011;24840;47.508;19.376;2022-10-17T22:36:35;13.32;;;10.43;;
39094;SDS011;24840;47.508;19.376;2022-10-17T22:39:02;16.23;;;10.95;;
39094;SDS011;24840;47.508;19.376;2022-10-17T22:48:20;14.75;;;11.82;;
39094;SDS011;24840;47.508;19.376;2022-10-17T22:50:47;13.75;;;11.63;;
39094;SDS011;24840;47.508;19.376;2022-10-17T22:56:42;15.32;;;11.02;;
39094;SDS011;24840;47.508;19.376;2022-10-17T22:59:08;14.15;;;10.70;;
39094;SDS011;24840;47.508;19.376;2022-10-17T23:08:26;13.45;;;9.30;;
39094;SDS011;24840;47.508;19.376;2022-10-17T23:10:52;17.25;;;9.60;;
39094;SDS011;24840;47.508;19.376;2022-10-17T23:16:41;15.98;;;9.13;;
39094;SDS011;24840;47.508;19.376;2022-10-17T23:19:07;11.35;;;8.50;;
39094;SDS011;24840;47.508;19.376;2022-10-17T23:21:39;14.75;;;10.68;;
39094;SDS011;24840;47.508;19.376;2022-10-17T23:24:05;14.25;;;10.13;;
39094;SDS011;24840;47.508;19.376;2022-10-17T23:26:31;15.57;;;10.10;;
39094;SDS011;24840;47.508;19.376;2022-10-17T23:28:57;13.87;;;9.57;;
39094;SDS011;24840;47.508;19.376;2022-10-17T23:31:23;10.52;;;8.90;;
39094;SDS011;24840;47.508;19.376;2022-10-17T23:33:49;15.75;;;10.30;;
39094;SDS011;24840;47.508;19.376;2022-10-17T23:36:16;11.15;;;9.55;;
39094;SDS011;24840;47.508;19.376;2022-10-17T23:38:43;11.27;;;9.70;;
39094;SDS011;24840;47.508;19.376;2022-10-17T23:41:10;15.40;;;10.55;;
39094;SDS011;24840;47.508;19.376;2022-10-17T23:46:58;14.07;;;9.27;;
39094;SDS011;24840;47.508;19.376;2022-10-17T23:49:26;21.17;;;10.60;;
39094;SDS011;24840;47.508;19.376;2022-10-17T23:58:18;18.23;;;10.77;;
